createdAt,value
2023-04-27T00:01:34.820Z,58.35
2023-04-27T00:04:14.506Z,59.47
2023-04-27T00:06:50.067Z,60.53
2023-04-27T00:09:28.096Z,64.32
2023-04-27T00:12:03.498Z,73.20
2023-04-27T00:14:35.159Z,72.80
2023-04-27T00:17:07.922Z,76.00
2023-04-27T00:19:34.982Z,76.68
2023-04-27T00:22:20.892Z,78.75
2023-04-27T00:27:25.734Z,66.60
2023-04-27T00:29:58.843Z,79.68
2023-04-27T00:32:36.000Z,76.57
2023-04-27T00:35:15.594Z,81.78
2023-04-27T00:37:54.205Z,68.75
2023-04-27T00:40:35.029Z,71.10
2023-04-27T00:43:04.170Z,74.22
2023-04-27T00:45:43.650Z,76.60
2023-04-27T00:48:16.397Z,74.55
2023-04-27T00:50:54.108Z,71.97
2023-04-27T00:53:31.587Z,81.68
2023-04-27T00:56:21.887Z,80.68
2023-04-27T00:59:03.021Z,78.25
2023-04-27T01:01:43.892Z,81.30
2023-04-27T01:04:23.286Z,67.05
2023-04-27T01:06:57.143Z,69.38
2023-04-27T01:09:32.642Z,76.07
2023-04-27T01:12:12.882Z,80.07
2023-04-27T01:14:46.008Z,90.20
2023-04-27T01:17:22.114Z,88.80
2023-04-27T01:20:02.431Z,97.25
2023-04-27T01:22:39.946Z,107.40
2023-04-27T01:25:12.860Z,112.82
2023-04-27T01:27:56.541Z,113.07
2023-04-27T01:30:30.863Z,120.22
2023-04-27T01:33:04.650Z,137.68
2023-04-27T01:35:46.921Z,118.72
2023-04-27T01:38:22.395Z,134.05
2023-04-27T01:40:50.061Z,124.80
2023-04-27T01:43:28.858Z,121.75
2023-04-27T01:46:05.070Z,112.78
2023-04-27T01:48:45.978Z,130.13
2023-04-27T01:51:16.285Z,119.22
2023-04-27T01:53:53.443Z,123.68
2023-04-27T01:56:25.063Z,116.85
2023-04-27T01:58:57.727Z,128.32
2023-04-27T02:01:40.968Z,133.73
2023-04-27T02:04:13.378Z,123.63
2023-04-27T02:06:51.194Z,130.20
2023-04-27T02:09:27.778Z,117.03
2023-04-27T02:12:00.658Z,137.00
2023-04-27T02:14:33.804Z,134.02
2023-04-27T02:17:09.031Z,128.02
2023-04-27T02:19:41.249Z,134.23
2023-04-27T02:22:19.692Z,135.60
2023-04-27T02:25:05.767Z,129.40
2023-04-27T02:27:32.736Z,127.07
2023-04-27T02:30:14.970Z,138.50
2023-04-27T02:32:55.390Z,137.15
2023-04-27T02:35:33.687Z,148.38
2023-04-27T02:38:06.878Z,140.80
2023-04-27T02:40:41.089Z,145.60
2023-04-27T02:43:13.884Z,154.23
2023-04-27T02:45:49.119Z,138.95
2023-04-27T02:48:19.140Z,130.52
2023-04-27T02:50:51.895Z,144.32
2023-04-27T02:53:18.945Z,154.60
2023-04-27T02:55:54.139Z,160.50
2023-04-27T02:58:21.473Z,136.48
2023-04-27T03:00:59.805Z,159.57
2023-04-27T03:03:32.650Z,148.07
2023-04-27T03:06:04.438Z,151.98
2023-04-27T03:08:44.027Z,154.95
2023-04-27T03:11:24.626Z,152.13
2023-04-27T03:14:02.052Z,155.57
2023-04-27T03:16:29.911Z,147.50
2023-04-27T03:18:59.152Z,136.27
2023-04-27T03:21:31.297Z,151.40
2023-04-27T03:24:03.674Z,153.68
2023-04-27T03:26:39.296Z,160.40
2023-04-27T03:29:12.031Z,135.43
2023-04-27T03:31:44.909Z,156.25
2023-04-27T03:34:14.857Z,122.65
2023-04-27T03:36:57.570Z,160.50
2023-04-27T03:39:34.864Z,177.05
2023-04-27T03:42:12.902Z,173.82
2023-04-27T03:44:50.915Z,184.70
2023-04-27T03:47:25.898Z,159.25
2023-04-27T03:50:13.951Z,176.65
2023-04-27T03:52:43.882Z,187.20
2023-04-27T03:55:19.498Z,207.57
2023-04-27T03:57:46.884Z,202.20
2023-04-27T04:00:18.512Z,186.50
2023-04-27T04:02:52.932Z,186.20
2023-04-27T04:05:30.599Z,196.38
2023-04-27T04:08:06.415Z,199.82
2023-04-27T04:10:44.484Z,204.48
2023-04-27T04:13:14.039Z,192.05
2023-04-27T04:15:49.239Z,209.60
2023-04-27T04:18:25.069Z,189.23
2023-04-27T04:20:57.663Z,193.90
2023-04-27T04:23:30.861Z,211.23
2023-04-27T04:26:05.840Z,198.20
2023-04-27T04:28:46.309Z,189.93
2023-04-27T04:31:18.762Z,191.38
2023-04-27T04:34:00.253Z,191.98
2023-04-27T04:36:38.562Z,206.27
2023-04-27T04:39:07.668Z,214.93
2023-04-27T04:41:38.842Z,243.00
2023-04-27T04:44:11.055Z,163.20
2023-04-27T04:46:43.138Z,238.25
2023-04-27T04:49:18.615Z,268.38
2023-04-27T04:51:56.933Z,308.02
2023-04-27T04:54:31.683Z,336.83
2023-04-27T04:57:04.713Z,322.75
2023-04-27T04:59:42.867Z,345.17
2023-04-27T05:02:20.885Z,299.48
2023-04-27T05:07:26.953Z,202.43
2023-04-27T05:09:54.094Z,181.57
2023-04-27T05:12:28.607Z,143.45
2023-04-27T05:15:01.153Z,101.25
2023-04-27T05:17:39.092Z,94.47
2023-04-27T05:20:15.965Z,35.88
2023-04-27T05:23:01.439Z,18.88
2023-04-27T05:25:40.766Z,19.60
2023-04-27T05:28:20.036Z,19.58
2023-04-27T05:30:57.167Z,16.83
2023-04-27T05:33:47.853Z,15.00
2023-04-27T05:36:23.299Z,14.05
2023-04-27T05:38:57.812Z,15.15
2023-04-27T05:41:36.173Z,12.00
2023-04-27T05:44:17.134Z,14.95
2023-04-27T05:46:56.311Z,14.82
2023-04-27T05:49:37.878Z,13.27
2023-04-27T05:52:17.860Z,11.55
2023-04-27T05:54:58.480Z,13.43
2023-04-27T05:57:42.366Z,16.73
2023-04-27T06:00:22.612Z,16.35
2023-04-27T06:03:00.374Z,14.10
2023-04-27T06:05:41.942Z,10.27
2023-04-27T06:08:25.304Z,6.30
2023-04-27T06:10:58.202Z,10.80
2023-04-27T06:13:30.505Z,11.43
2023-04-27T06:16:11.808Z,7.75
2023-04-27T06:18:50.446Z,9.27
2023-04-27T06:21:32.115Z,7.80
2023-04-27T06:24:19.228Z,13.10
2023-04-27T06:27:03.271Z,9.95
2023-04-27T06:32:17.874Z,7.13
2023-04-27T06:35:01.018Z,8.40
2023-04-27T06:37:38.888Z,8.07
2023-04-27T06:40:12.082Z,9.77
2023-04-27T06:42:58.503Z,7.82
2023-04-27T06:45:44.796Z,9.95
2023-04-27T06:48:25.651Z,8.57
2023-04-27T06:51:08.147Z,7.65
2023-04-27T06:53:38.184Z,9.57
2023-04-27T06:56:23.643Z,7.97
2023-04-27T06:59:08.147Z,6.20
2023-04-27T07:01:40.883Z,9.93
2023-04-27T07:04:26.905Z,8.88
2023-04-27T07:07:09.603Z,7.80
2023-04-27T07:09:47.788Z,12.90
2023-04-27T07:12:23.647Z,5.80
2023-04-27T07:15:04.392Z,6.07
2023-04-27T07:17:44.751Z,6.82
2023-04-27T07:20:27.377Z,5.32
2023-04-27T07:23:09.473Z,12.35
2023-04-27T07:25:52.502Z,7.35
2023-04-27T07:28:30.733Z,10.60
2023-04-27T07:31:09.811Z,4.90
2023-04-27T07:33:48.078Z,5.97
2023-04-27T07:36:34.467Z,9.90
2023-04-27T07:39:16.948Z,11.48
2023-04-27T07:42:05.852Z,6.85
2023-04-27T07:44:44.277Z,8.70
2023-04-27T07:47:19.652Z,8.40
2023-04-27T07:50:01.002Z,6.00
2023-04-27T07:52:41.625Z,5.05
2023-04-27T07:55:31.853Z,6.85
2023-04-27T07:58:12.821Z,7.85
2023-04-27T08:00:56.184Z,5.95
2023-04-27T08:03:35.160Z,8.73
2023-04-27T08:06:08.306Z,6.47
2023-04-27T08:08:49.800Z,4.40
2023-04-27T08:11:19.666Z,10.43
2023-04-27T08:13:59.887Z,7.03
2023-04-27T08:16:33.145Z,5.22
2023-04-27T08:19:05.445Z,2.33
2023-04-27T08:21:47.288Z,6.15
2023-04-27T08:24:26.129Z,4.32
2023-04-27T08:27:11.807Z,3.45
2023-04-27T08:30:02.916Z,7.20
2023-04-27T08:32:44.658Z,8.77
2023-04-27T08:35:23.082Z,6.93
2023-04-27T08:38:09.649Z,6.20
2023-04-27T08:40:54.745Z,5.10
2023-04-27T08:43:45.233Z,3.33
2023-04-27T08:46:27.230Z,8.82
2023-04-27T08:49:16.509Z,5.22
2023-04-27T08:51:57.573Z,3.08
2023-04-27T08:54:36.666Z,4.60
2023-04-27T08:57:23.526Z,5.95
2023-04-27T09:00:23.533Z,7.45
2023-04-27T09:03:06.702Z,4.25
2023-04-27T09:06:03.424Z,6.32
2023-04-27T09:08:52.861Z,3.88
2023-04-27T09:11:41.554Z,2.90
2023-04-27T09:14:31.346Z,7.82
2023-04-27T09:17:18.044Z,3.65
2023-04-27T09:19:50.452Z,8.18
2023-04-27T09:22:45.225Z,3.65
2023-04-27T09:25:36.017Z,14.93
2023-04-27T09:28:16.846Z,7.82
2023-04-27T09:31:05.148Z,7.35
2023-04-27T09:33:48.824Z,8.20
2023-04-27T09:36:30.980Z,7.63
2023-04-27T09:39:12.560Z,14.75
2023-04-27T09:41:55.820Z,4.70
2023-04-27T09:44:43.767Z,5.47
2023-04-27T09:47:21.874Z,5.07
2023-04-27T09:50:07.139Z,6.25
2023-04-27T09:52:45.861Z,7.63
2023-04-27T09:55:41.936Z,4.57
2023-04-27T09:58:38.405Z,9.93
2023-04-27T10:01:24.265Z,12.90
2023-04-27T10:04:35.089Z,4.53
2023-04-27T10:07:13.823Z,4.30
2023-04-27T10:10:00.240Z,9.02
2023-04-27T10:12:41.650Z,3.45
2023-04-27T10:15:29.492Z,8.30
2023-04-27T10:18:11.545Z,10.10
2023-04-27T10:21:12.249Z,7.43
2023-04-27T10:23:57.368Z,5.70
2023-04-27T10:26:49.818Z,5.82
2023-04-27T10:29:40.363Z,7.97
2023-04-27T10:32:32.870Z,6.60
2023-04-27T10:35:22.410Z,4.82
2023-04-27T10:38:28.310Z,4.97
2023-04-27T10:41:12.613Z,9.07
2023-04-27T10:43:50.271Z,10.52
2023-04-27T10:46:28.942Z,4.72
2023-04-27T10:49:14.977Z,7.40
2023-04-27T10:52:05.251Z,6.38
2023-04-27T10:54:49.811Z,8.88
2023-04-27T10:57:31.542Z,6.07
2023-04-27T11:00:21.225Z,5.95
2023-04-27T11:03:00.794Z,5.38
2023-04-27T11:05:46.721Z,7.88
2023-04-27T11:08:31.831Z,7.82
2023-04-27T11:11:09.764Z,5.57
2023-04-27T11:13:49.538Z,10.40
2023-04-27T11:16:33.107Z,4.18
2023-04-27T11:19:14.153Z,7.15
2023-04-27T11:21:53.156Z,4.60
2023-04-27T11:24:29.383Z,4.57
2023-04-27T11:27:07.517Z,4.45
2023-04-27T11:29:51.815Z,6.93
2023-04-27T11:32:27.120Z,11.30
2023-04-27T11:35:07.474Z,6.15
2023-04-27T11:37:58.342Z,8.48
2023-04-27T11:40:45.557Z,4.93
2023-04-27T11:43:25.677Z,5.35
2023-04-27T11:46:17.913Z,7.30
2023-04-27T11:49:16.973Z,9.35
2023-04-27T11:51:59.252Z,4.55
2023-04-27T11:54:56.464Z,6.07
2023-04-27T11:57:36.168Z,8.77
2023-04-27T12:00:15.336Z,7.38
2023-04-27T12:03:04.934Z,6.80
2023-04-27T12:05:52.976Z,7.93
2023-04-27T12:08:31.168Z,3.95
2023-04-27T12:11:11.971Z,9.95
2023-04-27T12:14:04.288Z,4.10
2023-04-27T12:16:44.498Z,4.63
2023-04-27T12:19:34.798Z,5.53
2023-04-27T12:22:10.843Z,5.20
2023-04-27T12:24:48.596Z,6.82
2023-04-27T12:27:32.833Z,8.32
2023-04-27T12:30:14.630Z,8.10
2023-04-27T12:32:52.978Z,7.05
2023-04-27T12:35:32.101Z,4.40
2023-04-27T12:38:07.256Z,5.05
2023-04-27T12:40:42.897Z,5.93
2023-04-27T12:43:23.619Z,7.68
2023-04-27T12:45:58.913Z,4.25
2023-04-27T12:48:36.565Z,5.50
2023-04-27T12:51:17.741Z,6.72
2023-04-27T12:54:02.769Z,6.78
2023-04-27T12:56:44.098Z,6.63
2023-04-27T12:59:24.918Z,6.57
2023-04-27T13:02:06.130Z,6.63
2023-04-27T13:04:45.053Z,6.63
2023-04-27T13:07:23.348Z,3.95
2023-04-27T13:10:07.935Z,4.10
2023-04-27T13:12:42.463Z,5.80
2023-04-27T13:15:20.216Z,4.25
2023-04-27T13:18:00.396Z,8.18
2023-04-27T13:20:42.939Z,15.57
2023-04-27T13:23:20.564Z,7.93
2023-04-27T13:26:04.166Z,9.43
2023-04-27T13:28:39.162Z,3.50
2023-04-27T13:31:22.946Z,6.63
2023-04-27T13:33:58.767Z,5.30
2023-04-27T13:36:28.966Z,4.75
2023-04-27T13:39:12.054Z,7.03
2023-04-27T13:41:48.879Z,10.00
2023-04-27T13:44:29.639Z,5.38
2023-04-27T13:47:11.372Z,5.28
2023-04-27T13:49:49.147Z,6.57
2023-04-27T13:52:27.800Z,6.75
2023-04-27T13:55:03.931Z,11.68
2023-04-27T13:57:47.822Z,3.70
2023-04-27T14:00:45.695Z,7.40
2023-04-27T14:03:23.584Z,2.10
2023-04-27T14:06:01.929Z,3.70
2023-04-27T14:08:41.982Z,5.00
2023-04-27T14:11:23.469Z,9.50
2023-04-27T14:13:58.676Z,4.57
2023-04-27T14:16:39.964Z,8.02
2023-04-27T14:19:18.774Z,7.15
2023-04-27T14:21:59.611Z,5.97
2023-04-27T14:24:41.256Z,6.55
2023-04-27T14:27:19.806Z,6.25
2023-04-27T14:29:58.417Z,4.10
2023-04-27T14:35:23.966Z,5.30
2023-04-27T14:38:11.323Z,4.82
2023-04-27T14:40:57.750Z,4.90
2023-04-27T14:43:40.447Z,5.97
2023-04-27T14:46:22.396Z,8.97
2023-04-27T14:49:07.762Z,3.92
2023-04-27T14:51:51.371Z,5.45
2023-04-27T14:54:29.644Z,8.73
2023-04-27T14:57:13.217Z,5.03
2023-04-27T14:59:55.761Z,4.85
2023-04-27T15:02:36.997Z,4.32
2023-04-27T15:05:17.783Z,4.65
2023-04-27T15:07:55.072Z,7.00
2023-04-27T15:10:35.521Z,5.20
2023-04-27T15:13:16.253Z,6.57
2023-04-27T15:15:47.630Z,4.05
2023-04-27T15:18:23.486Z,5.55
2023-04-27T15:21:04.375Z,4.35
2023-04-27T15:23:38.075Z,7.53
2023-04-27T15:26:23.446Z,4.82
2023-04-27T15:29:02.562Z,6.25
2023-04-27T15:31:43.552Z,6.78
2023-04-27T15:34:22.372Z,7.38
2023-04-27T15:37:02.858Z,12.98
2023-04-27T15:39:41.277Z,5.45
2023-04-27T15:42:16.637Z,10.10
2023-04-27T15:45:08.021Z,4.57
2023-04-27T15:47:41.703Z,6.47
2023-04-27T15:50:18.084Z,6.97
2023-04-27T15:53:05.152Z,4.93
2023-04-27T15:55:42.303Z,5.63
2023-04-27T15:58:20.034Z,2.92
2023-04-27T16:00:56.856Z,6.38
2023-04-27T16:03:33.511Z,5.53
2023-04-27T16:06:06.472Z,7.32
2023-04-27T16:08:49.694Z,3.40
2023-04-27T16:11:29.958Z,5.25
2023-04-27T16:14:08.214Z,3.42
2023-04-27T16:16:46.959Z,7.10
2023-04-27T16:19:30.487Z,6.57
2023-04-27T16:22:10.947Z,7.50
2023-04-27T16:24:43.582Z,3.85
2023-04-27T16:27:28.053Z,6.28
2023-04-27T16:30:06.939Z,4.70
2023-04-27T16:32:47.807Z,6.10
2023-04-27T16:35:19.897Z,3.78
2023-04-27T16:37:58.862Z,6.07
2023-04-27T16:40:32.274Z,5.85
2023-04-27T16:43:05.064Z,6.30
2023-04-27T16:45:47.108Z,3.15
2023-04-27T16:48:28.380Z,6.32
2023-04-27T16:51:13.623Z,9.98
2023-04-27T16:53:49.339Z,17.40
2023-04-27T16:56:33.832Z,16.88
2023-04-27T16:59:07.694Z,11.77
2023-04-27T17:01:40.554Z,10.77
2023-04-27T17:04:19.026Z,10.85
2023-04-27T17:07:02.552Z,27.48
2023-04-27T17:09:45.702Z,42.58
2023-04-27T17:12:21.130Z,32.45
2023-04-27T17:15:02.164Z,37.10
2023-04-27T17:17:46.896Z,15.18
2023-04-27T17:20:22.893Z,28.98
2023-04-27T17:23:08.912Z,38.35
2023-04-27T17:25:51.001Z,49.92
2023-04-27T17:28:29.914Z,16.67
2023-04-27T17:31:05.477Z,21.65
2023-04-27T17:33:46.737Z,13.88
2023-04-27T17:36:19.367Z,10.23
2023-04-27T17:39:01.472Z,5.70
2023-04-27T17:41:37.192Z,6.68
2023-04-27T17:44:12.101Z,6.65
2023-04-27T17:46:54.958Z,7.47
2023-04-27T17:49:33.693Z,9.07
2023-04-27T17:52:11.331Z,8.90
2023-04-27T17:54:41.383Z,6.38
2023-04-27T17:57:22.236Z,9.60
2023-04-27T18:00:06.427Z,5.30
2023-04-27T18:02:52.046Z,7.30
2023-04-27T18:05:24.282Z,8.80
2023-04-27T18:08:06.790Z,8.05
2023-04-27T18:10:41.980Z,9.63
2023-04-27T18:13:17.321Z,10.20
2023-04-27T18:15:55.985Z,13.13
2023-04-27T18:18:36.385Z,11.80
2023-04-27T18:21:26.756Z,11.98
2023-04-27T18:24:05.587Z,16.08
2023-04-27T18:26:41.600Z,9.45
2023-04-27T18:29:24.207Z,7.40
2023-04-27T18:31:56.694Z,10.27
2023-04-27T18:34:39.845Z,12.73
2023-04-27T18:37:18.218Z,16.35
2023-04-27T18:39:55.847Z,11.40
2023-04-27T18:42:46.249Z,19.55
2023-04-27T18:45:29.012Z,19.67
2023-04-27T18:48:07.944Z,17.75
2023-04-27T18:50:40.766Z,19.27
2023-04-27T18:53:20.606Z,20.08
2023-04-27T18:55:56.549Z,12.00
2023-04-27T18:58:40.328Z,16.35
2023-04-27T19:01:20.017Z,10.48
2023-04-27T19:04:02.554Z,12.00
2023-04-27T19:06:38.557Z,16.27
2023-04-27T19:09:19.346Z,14.30
2023-04-27T19:12:05.680Z,12.90
2023-04-27T19:14:44.545Z,11.77
2023-04-27T19:17:26.281Z,18.80
2023-04-27T19:20:08.843Z,16.92
2023-04-27T19:22:52.853Z,24.02
2023-04-27T19:28:13.245Z,17.48
2023-04-27T19:30:45.617Z,21.42
2023-04-27T19:33:20.902Z,21.90
2023-04-27T19:35:58.870Z,17.73
2023-04-27T19:38:42.094Z,13.93
2023-04-27T19:41:24.793Z,17.20
2023-04-27T19:44:05.528Z,14.40
2023-04-27T19:46:42.645Z,13.35
2023-04-27T19:49:20.922Z,13.10
2023-04-27T19:51:53.340Z,14.90
2023-04-27T19:54:33.894Z,19.75
2023-04-27T19:57:21.346Z,27.35
2023-04-27T19:59:59.145Z,25.25
2023-04-27T20:02:37.598Z,24.80
2023-04-27T20:05:22.263Z,30.25
2023-04-27T20:08:03.401Z,31.50
2023-04-27T20:10:44.000Z,24.38
2023-04-27T20:13:21.198Z,21.98
2023-04-27T20:15:58.348Z,22.27
2023-04-27T20:18:35.339Z,23.70
2023-04-27T20:21:09.344Z,27.85
2023-04-27T20:23:44.251Z,23.63
2023-04-27T20:26:24.619Z,29.77
2023-04-27T20:28:56.911Z,27.23
2023-04-27T20:31:32.877Z,24.38
2023-04-27T20:34:14.770Z,25.70
2023-04-27T20:36:58.077Z,25.30
2023-04-27T20:39:30.200Z,16.43
2023-04-27T20:42:08.573Z,24.92
2023-04-27T20:44:49.691Z,20.95
2023-04-27T20:47:24.874Z,20.85
2023-04-27T20:50:02.588Z,14.93
2023-04-27T20:52:41.796Z,21.70
2023-04-27T20:55:22.260Z,14.48
2023-04-27T20:57:58.401Z,13.70
2023-04-27T21:00:42.607Z,13.73
2023-04-27T21:03:13.125Z,13.40
2023-04-27T21:05:45.562Z,15.60
2023-04-27T21:08:23.204Z,15.20
2023-04-27T21:11:01.491Z,17.35
2023-04-27T21:13:36.857Z,14.05
2023-04-27T21:16:12.026Z,18.20
2023-04-27T21:18:57.106Z,18.45
2023-04-27T21:21:35.112Z,19.48
2023-04-27T21:24:13.488Z,21.17
2023-04-27T21:26:48.992Z,21.83
2023-04-27T21:29:18.784Z,24.45
2023-04-27T21:32:00.451Z,23.17
2023-04-27T21:34:46.940Z,26.58
2023-04-27T21:37:24.778Z,31.90
2023-04-27T21:40:02.604Z,31.40
2023-04-27T21:42:44.073Z,30.67
2023-04-27T21:45:27.318Z,26.35
2023-04-27T21:48:09.666Z,29.75
2023-04-27T21:50:42.117Z,23.30
2023-04-27T21:53:15.997Z,22.35
2023-04-27T21:55:57.806Z,21.52
2023-04-27T21:58:36.446Z,23.77
2023-04-27T22:01:15.356Z,25.95
2023-04-27T22:03:54.149Z,29.52
2023-04-27T22:06:35.407Z,18.40
2023-04-27T22:09:12.634Z,24.95
2023-04-27T22:11:53.890Z,24.95
2023-04-27T22:14:32.627Z,25.50
2023-04-27T22:17:12.674Z,26.55
2023-04-27T22:19:53.786Z,27.55
2023-04-27T22:22:32.349Z,36.80
2023-04-27T22:25:14.368Z,26.63
2023-04-27T22:27:52.763Z,44.63
2023-04-27T22:30:36.794Z,36.03
2023-04-27T22:33:14.733Z,45.47
2023-04-27T22:35:44.875Z,48.95
2023-04-27T22:38:14.480Z,49.95
2023-04-27T22:40:54.746Z,46.80
2023-04-27T22:43:27.907Z,41.88
2023-04-27T22:46:08.190Z,36.60
2023-04-27T22:48:46.386Z,37.28
2023-04-27T22:51:27.868Z,33.78
2023-04-27T22:54:06.327Z,32.05
2023-04-27T22:56:46.100Z,39.42
2023-04-27T22:59:23.185Z,42.55
2023-04-27T23:02:06.550Z,45.97
2023-04-27T23:04:44.781Z,38.60
2023-04-27T23:07:23.434Z,38.25
2023-04-27T23:10:02.873Z,41.40
2023-04-27T23:12:40.804Z,34.67
2023-04-27T23:15:22.435Z,35.78
2023-04-27T23:18:01.684Z,38.63
2023-04-27T23:20:36.951Z,38.55
2023-04-27T23:23:06.747Z,41.00
2023-04-27T23:25:44.445Z,39.15
2023-04-27T23:28:20.914Z,34.55
2023-04-27T23:30:57.696Z,33.00
2023-04-27T23:33:38.926Z,35.10
2023-04-27T23:36:17.328Z,37.33
2023-04-27T23:38:52.364Z,33.03
2023-04-27T23:41:30.051Z,34.05
2023-04-27T23:44:05.480Z,38.58
2023-04-27T23:46:46.718Z,46.25
2023-04-27T23:49:21.944Z,48.40
2023-04-27T23:52:03.722Z,45.88
2023-04-27T23:54:33.758Z,43.55
2023-04-27T23:57:11.705Z,41.58
2023-04-27T23:59:50.280Z,32.42
